Time;durP1;ratioP1;P1;durP2;ratioP2;P2;SDS_P1;SDS_P2;PMS_P1;PMS_P2;Temp;Humidity;BMP_temperature;BMP_pressure;BME280_temperature;BME280_humidity;BME280_pressure;Samples;Min_cycle;Max_cycle;Signal;HPM_P1;HPM_P2
2021/04/19 00:02:08;;;;;;;42.75;29.15;;;5.20;85.10;;;;;;5063201;28;20085;-73
2021/04/19 00:04:34;;;;;;;42.83;29.67;;;5.20;85.10;;;;;;5067146;28;20078;-72
2021/04/19 00:07:00;;;;;;;44.53;29.73;;;5.20;85.10;;;;;;5062941;28;20060;-73
2021/04/19 00:09:26;;;;;;;44.50;28.80;;;5.10;84.90;;;;;;5066817;28;20036;-73
2021/04/19 00:11:51;;;;;;;42.85;28.58;;;5.00;85.00;;;;;;5052830;28;20032;-73
2021/04/19 00:14:17;;;;;;;43.80;29.15;;;5.00;85.20;;;;;;5050418;28;20380;-74
2021/04/19 00:16:43;;;;;;;46.00;29.27;;;5.00;85.30;;;;;;5044010;28;20809;-73
2021/04/19 00:19:08;;;;;;;41.97;28.73;;;5.00;85.20;;;;;;5061082;28;20455;-73
2021/04/19 00:21:34;;;;;;;42.17;28.42;;;5.10;85.00;;;;;;5074090;28;20397;-73
2021/04/19 00:24:00;;;;;;;44.35;28.23;;;5.00;84.90;;;;;;5066995;28;20039;-73
2021/04/19 00:26:26;;;;;;;42.10;28.77;;;5.00;85.00;;;;;;5065656;28;20048;-73
2021/04/19 00:28:51;;;;;;;42.13;28.80;;;5.00;85.00;;;;;;5056852;28;20036;-73
2021/04/19 00:31:18;;;;;;;46.25;29.92;;;4.90;85.10;;;;;;5062648;28;20080;-74
2021/04/19 00:33:43;;;;;;;38.72;27.48;;;4.90;85.30;;;;;;5061996;28;20056;-72
2021/04/19 00:36:10;;;;;;;40.92;29.88;;;4.90;85.40;;;;;;5045656;28;21047;-73
2021/04/19 00:38:36;;;;;;;45.15;30.50;;;4.90;85.20;;;;;;5062293;28;20544;-74
2021/04/19 00:41:02;;;;;;;46.13;30.10;;;4.90;85.10;;;;;;5056890;28;20037;-74
2021/04/19 00:43:29;;;;;;;47.08;30.05;;;4.90;85.10;;;;;;5048055;28;20111;-73
2021/04/19 00:46:02;;;;;;;45.58;30.02;;;4.90;85.20;;;;;;5064255;28;20117;-73
2021/04/19 00:48:28;;;;;;;52.60;32.38;;;4.90;85.40;;;;;;5058876;28;20036;-73
2021/04/19 00:50:55;;;;;;;45.90;31.40;;;4.80;85.60;;;;;;5066710;28;20040;-73
2021/04/19 00:53:24;;;;;;;48.08;32.55;;;4.80;85.70;;;;;;5063994;28;20028;-73
2021/04/19 00:55:50;;;;;;;48.15;30.90;;;4.80;85.80;;;;;;5060769;28;20028;-73
2021/04/19 00:58:18;;;;;;;49.28;31.55;;;4.80;85.80;;;;;;5059087;28;20044;-72
2021/04/19 01:00:44;;;;;;;50.10;31.85;;;4.80;85.90;;;;;;5064408;28;20451;-73
2021/04/19 01:03:10;;;;;;;54.28;32.22;;;4.70;86.00;;;;;;5063587;28;20029;-73
2021/04/19 01:05:38;;;;;;;46.00;31.05;;;4.70;86.10;;;;;;5065581;28;20073;-73
2021/04/19 01:08:04;;;;;;;55.53;33.35;;;4.70;86.10;;;;;;5058746;28;20437;-73
2021/04/19 01:10:30;;;;;;;48.47;32.80;;;4.70;86.00;;;;;;5062759;28;20053;-73
2021/04/19 01:12:56;;;;;;;47.85;31.45;;;4.70;86.10;;;;;;5059115;28;20076;-73
2021/04/19 01:15:22;;;;;;;49.10;32.15;;;4.70;86.20;;;;;;5064757;28;20067;-73
2021/04/19 01:17:47;;;;;;;52.30;33.28;;;4.70;86.20;;;;;;5065555;28;20036;-73
2021/04/19 01:20:17;;;;;;;55.80;33.47;;;4.60;86.20;;;;;;5059285;28;20428;-73
2021/04/19 01:22:44;;;;;;;46.80;32.20;;;4.60;86.30;;;;;;5065653;28;20533;-73
2021/04/19 01:25:16;;;;;;;48.95;32.88;;;4.60;86.20;;;;;;5042906;28;20457;-72
2021/04/19 01:27:42;;;;;;;46.55;31.88;;;4.60;86.30;;;;;;5044024;28;20036;-73
2021/04/19 01:30:08;;;;;;;47.53;31.42;;;4.60;86.40;;;;;;5039410;28;20082;-72
2021/04/19 01:32:35;;;;;;;55.03;33.28;;;4.60;86.40;;;;;;5046528;28;20120;-75
2021/04/19 01:35:00;;;;;;;45.08;31.92;;;4.60;86.30;;;;;;5052166;28;20107;-73
2021/04/19 01:37:26;;;;;;;46.15;31.67;;;4.60;86.20;;;;;;5050959;28;20457;-75
2021/04/19 01:39:52;;;;;;;48.55;31.08;;;4.60;86.00;;;;;;5055550;28;20035;-73
2021/04/19 01:42:17;;;;;;;46.00;31.58;;;4.50;85.80;;;;;;5057792;28;20115;-74
2021/04/19 01:44:43;;;;;;;45.67;31.55;;;4.50;85.70;;;;;;5063285;28;20039;-73
2021/04/19 01:47:09;;;;;;;44.50;29.30;;;4.50;85.60;;;;;;5065796;28;20025;-73
2021/04/19 01:49:35;;;;;;;47.20;32.00;;;4.40;85.50;;;;;;5049728;28;20152;-72
2021/04/19 01:52:01;;;;;;;47.55;31.27;;;4.40;85.50;;;;;;5041736;28;20083;-73
2021/04/19 01:54:27;;;;;;;51.10;32.67;;;4.40;85.50;;;;;;5043693;28;20556;-73
2021/04/19 01:56:54;;;;;;;43.95;30.10;;;4.40;85.40;;;;;;5041460;28;20124;-72
2021/04/19 01:59:20;;;;;;;47.17;31.75;;;4.30;85.50;;;;;;5050714;28;20132;-73
2021/04/19 02:02:12;;;;;;;46.70;31.98;;;4.30;85.60;;;;;;5065529;28;20024;-72
2021/04/19 02:04:55;;;;;;;41.72;29.45;;;4.30;85.60;;;;;;5061391;28;20060;-72
2021/04/19 02:07:35;;;;;;;44.05;30.77;;;4.30;85.80;;;;;;5060194;28;20072;-73
2021/04/19 02:10:28;;;;;;;47.83;30.40;;;4.30;85.70;;;;;;5051484;28;20781;-73
2021/04/19 02:12:59;;;;;;;45.72;31.35;;;4.30;85.60;;;;;;5050174;28;20056;-73
2021/04/19 02:15:34;;;;;;;42.80;31.38;;;4.20;85.60;;;;;;5034005;28;20040;-73
2021/04/19 02:18:11;;;;;;;49.75;32.53;;;4.20;85.60;;;;;;5043593;28;20061;-74
2021/04/19 02:20:58;;;;;;;48.03;31.45;;;4.20;85.70;;;;;;5052331;28;20041;-72
2021/04/19 02:23:34;;;;;;;48.22;31.45;;;4.20;85.50;;;;;;5060034;28;20043;-72
2021/04/19 02:26:30;;;;;;;50.60;33.20;;;4.20;85.60;;;;;;5062657;28;20048;-73
2021/04/19 02:29:02;;;;;;;47.53;32.40;;;4.20;85.70;;;;;;5048960;28;20040;-72
2021/04/19 02:31:33;;;;;;;47.38;31.77;;;4.20;85.80;;;;;;5059791;28;20024;-72
2021/04/19 02:34:02;;;;;;;51.63;32.35;;;4.20;85.80;;;;;;5067824;28;20089;-73
2021/04/19 02:36:29;;;;;;;49.22;32.53;;;4.10;85.80;;;;;;5060988;28;20016;-72
2021/04/19 02:38:57;;;;;;;44.42;30.98;;;4.10;85.70;;;;;;5051113;28;20551;-72
2021/04/19 02:41:24;;;;;;;44.00;31.08;;;4.10;85.70;;;;;;5054510;28;20345;-73
2021/04/19 02:43:52;;;;;;;44.65;31.08;;;4.10;85.70;;;;;;5060099;28;20084;-72
2021/04/19 02:46:18;;;;;;;48.63;32.75;;;4.10;85.70;;;;;;5041472;28;20064;-72
2021/04/19 02:48:45;;;;;;;46.20;32.95;;;4.10;85.70;;;;;;5043976;28;20032;-72
2021/04/19 02:51:11;;;;;;;49.80;31.65;;;4.10;85.70;;;;;;5037321;28;20476;-72
2021/04/19 02:53:39;;;;;;;46.00;31.45;;;4.10;85.60;;;;;;5040732;28;20053;-74
2021/04/19 02:56:06;;;;;;;43.60;31.73;;;4.00;85.60;;;;;;5043382;28;20116;-73
2021/04/19 02:58:38;;;;;;;51.15;32.75;;;4.00;85.60;;;;;;5042823;28;20349;-72
2021/04/19 03:01:10;;;;;;;53.25;33.75;;;4.00;85.70;;;;;;5044391;28;20116;-73
2021/04/19 03:03:41;;;;;;;48.38;33.28;;;3.90;85.70;;;;;;5057072;28;20036;-73
2021/04/19 03:06:08;;;;;;;45.42;32.00;;;4.00;85.80;;;;;;5066500;28;20032;-73
2021/04/19 03:08:38;;;;;;;49.75;33.03;;;4.10;85.90;;;;;;5066465;28;20483;-73
2021/04/19 03:11:34;;;;;;;51.67;34.30;;;4.00;86.00;;;;;;5064460;28;20033;-73
2021/04/19 03:14:01;;;;;;;;;;;4.00;86.00;;;;;;5067203;28;20378;-72
2021/04/19 03:16:31;;;;;;;46.33;31.70;;;4.00;86.10;;;;;;5067807;28;19912;-72
2021/04/19 03:18:59;;;;;;;49.10;33.22;;;4.00;86.10;;;;;;5066126;28;20537;-72
2021/04/19 03:21:27;;;;;;;49.58;32.88;;;4.00;86.20;;;;;;5068116;28;20083;-73
2021/04/19 03:24:00;;;;;;;47.65;33.45;;;4.00;86.40;;;;;;5057741;28;20039;-72
2021/04/19 03:26:29;;;;;;;47.85;32.30;;;4.00;86.50;;;;;;5064043;28;20021;-72
2021/04/19 03:28:57;;;;;;;52.42;33.55;;;4.00;86.50;;;;;;5066250;28;20046;-73
2021/04/19 03:31:50;;;;;;;54.42;32.80;;;4.00;86.60;;;;;;5069268;28;20099;-73
2021/04/19 03:34:25;;;;;;;52.38;33.65;;;4.00;86.70;;;;;;5065070;28;20025;-72
2021/04/19 03:36:56;;;;;;;52.45;34.63;;;4.10;86.80;;;;;;5067037;28;20032;-73
2021/04/19 03:39:24;;;;;;;57.63;34.40;;;4.10;86.90;;;;;;5065021;28;20036;-72
2021/04/19 03:41:53;;;;;;;55.58;35.08;;;4.00;87.00;;;;;;5047050;28;20029;-72
2021/04/19 03:44:23;;;;;;;52.45;35.03;;;4.10;87.10;;;;;;5061012;28;20086;-74
2021/04/19 03:46:51;;;;;;;51.15;33.78;;;4.10;87.20;;;;;;5067581;28;20042;-72
2021/04/19 03:49:26;;;;;;;49.42;35.13;;;4.10;87.30;;;;;;5062939;28;20040;-75
2021/04/19 03:51:56;;;;;;;55.72;35.40;;;4.10;87.30;;;;;;5043021;28;20021;-72
2021/04/19 03:54:29;;;;;;;57.50;36.65;;;4.10;87.40;;;;;;5045984;28;20539;-74
2021/04/19 03:56:56;;;;;;;52.40;34.70;;;4.10;87.40;;;;;;5043706;28;20044;-75
2021/04/19 03:59:24;;;;;;;55.53;35.38;;;4.10;87.40;;;;;;5046032;28;20044;-72
2021/04/19 04:01:51;;;;;;;53.60;36.25;;;4.10;87.50;;;;;;5056755;28;20032;-74
2021/04/19 04:04:19;;;;;;;55.83;36.63;;;4.10;87.60;;;;;;5047264;28;20021;-74
2021/04/19 04:06:46;;;;;;;50.65;34.65;;;4.10;87.60;;;;;;5043751;28;20025;-74
2021/04/19 04:09:14;;;;;;;59.92;35.67;;;4.10;87.70;;;;;;5042329;28;20108;-74
2021/04/19 04:11:42;;;;;;;51.92;34.45;;;4.00;87.70;;;;;;5039014;28;20041;-74
2021/04/19 04:14:08;;;;;;;65.35;37.10;;;4.00;87.80;;;;;;5038470;28;20475;-74
2021/04/19 04:16:33;;;;;;;54.63;35.65;;;4.10;87.90;;;;;;5046833;28;20112;-74
2021/04/19 04:18:59;;;;;;;56.63;35.53;;;4.10;87.90;;;;;;5052001;28;20102;-74
2021/04/19 04:21:27;;;;;;;54.60;35.15;;;4.10;87.80;;;;;;5046585;28;20032;-75
2021/04/19 04:23:53;;;;;;;56.35;35.83;;;4.10;87.80;;;;;;5067251;28;20449;-76
2021/04/19 04:26:19;;;;;;;57.10;35.50;;;4.10;87.80;;;;;;5061291;28;20024;-75
2021/04/19 04:28:45;;;;;;;62.38;37.85;;;4.10;87.80;;;;;;5064536;28;20082;-74
2021/04/19 04:31:11;;;;;;;63.40;36.00;;;4.10;87.80;;;;;;5060641;28;20037;-74
2021/04/19 04:33:37;;;;;;;60.70;37.00;;;4.10;87.90;;;;;;5053767;28;20029;-75
2021/04/19 04:36:02;;;;;;;52.70;36.38;;;4.10;87.90;;;;;;5061008;28;20383;-75
2021/04/19 04:38:28;;;;;;;59.50;36.58;;;4.10;87.90;;;;;;5062061;28;20044;-76
2021/04/19 04:40:54;;;;;;;57.65;36.38;;;4.10;88.00;;;;;;5062035;28;20439;-74
2021/04/19 04:43:23;;;;;;;57.67;36.63;;;4.20;88.00;;;;;;5059705;28;20468;-74
2021/04/19 04:45:53;;;;;;;59.05;36.15;;;4.20;88.00;;;;;;5060917;28;20485;-75
2021/04/19 04:48:41;;;;;;;65.13;38.42;;;4.20;88.10;;;;;;5062271;28;20116;-75
2021/04/19 04:51:13;;;;;;;62.40;37.67;;;4.30;88.10;;;;;;5060364;28;20406;-75
2021/04/19 04:53:53;;;;;;;63.00;38.35;;;4.30;88.30;;;;;;5060568;28;20056;-75
2021/04/19 04:56:21;;;;;;;61.72;35.45;;;4.30;88.50;;;;;;5058372;28;20028;-74
2021/04/19 04:58:51;;;;;;;66.50;40.95;;;4.40;88.60;;;;;;5041911;28;20085;-74
2021/04/19 05:01:18;;;;;;;62.53;38.13;;;4.50;88.60;;;;;;5032117;28;20513;-74
2021/04/19 05:03:45;;;;;;;63.55;38.92;;;4.60;88.70;;;;;;5036551;28;20577;-74
2021/04/19 05:06:12;;;;;;;57.90;37.60;;;4.60;88.80;;;;;;5034689;28;20568;-75
2021/04/19 05:08:39;;;;;;;59.55;38.28;;;4.70;88.70;;;;;;5039798;28;20033;-75
2021/04/19 05:11:05;;;;;;;60.42;38.58;;;4.80;88.70;;;;;;5035671;28;20116;-75
2021/04/19 05:13:30;;;;;;;60.00;38.92;;;4.90;88.60;;;;;;5034327;28;20078;-75
2021/04/19 05:15:56;;;;;;;64.55;40.40;;;4.90;88.60;;;;;;5034648;28;20063;-75
2021/04/19 05:18:22;;;;;;;64.05;41.42;;;5.00;88.60;;;;;;5038287;28;20037;-75
2021/04/19 05:20:48;;;;;;;69.38;39.63;;;5.00;88.60;;;;;;5044733;28;20037;-75
2021/04/19 05:23:15;;;;;;;63.55;39.13;;;5.10;88.60;;;;;;5042839;28;20037;-75
2021/04/19 05:25:42;;;;;;;62.63;37.95;;;5.10;88.70;;;;;;5045806;28;20040;-75
2021/04/19 05:28:08;;;;;;;72.47;40.38;;;5.20;88.70;;;;;;5041672;28;20179;-75
2021/04/19 05:30:35;;;;;;;68.18;39.97;;;5.20;88.70;;;;;;5042592;28;20051;-75
2021/04/19 05:33:03;;;;;;;74.10;41.17;;;5.10;88.80;;;;;;5043993;28;20036;-76
2021/04/19 05:35:30;;;;;;;65.15;39.10;;;5.20;88.70;;;;;;5038879;28;20452;-70
2021/04/19 05:37:56;;;;;;;72.03;40.83;;;5.30;88.70;;;;;;5042742;28;20041;-71
2021/04/19 05:40:25;;;;;;;78.10;40.65;;;5.30;88.60;;;;;;5044401;28;20480;-68
2021/04/19 05:42:51;;;;;;;72.00;40.20;;;5.30;88.70;;;;;;5042222;28;20076;-70
2021/04/19 05:45:18;;;;;;;75.32;38.28;;;5.30;88.80;;;;;;5042854;28;20598;-69
2021/04/19 05:47:48;;;;;;;76.32;39.33;;;5.30;88.80;;;;;;5040673;28;20040;-69
2021/04/19 05:50:15;;;;;;;74.45;37.85;;;5.30;89.00;;;;;;5050913;28;20041;-69
2021/04/19 05:52:43;;;;;;;83.75;36.83;;;5.40;89.10;;;;;;5038083;28;20029;-69
2021/04/19 05:55:09;;;;;;;98.55;38.13;;;5.40;89.20;;;;;;5049530;28;20033;-69
2021/04/19 05:57:56;;;;;;;103.00;42.03;;;5.40;89.50;;;;;;5044590;28;20048;-71
2021/04/19 06:00:35;;;;;;;76.95;38.35;;;5.40;89.70;;;;;;5046957;28;20056;-70
2021/04/19 06:03:08;;;;;;;85.05;38.92;;;5.50;89.80;;;;;;5044251;28;20040;-70
2021/04/19 06:05:45;;;;;;;104.50;42.90;;;5.60;89.80;;;;;;5050640;28;20549;-70
2021/04/19 06:08:13;;;;;;;87.97;38.58;;;5.60;90.00;;;;;;5048110;28;20045;-70
2021/04/19 06:10:47;;;;;;;107.60;39.00;;;5.60;90.10;;;;;;5034915;28;20055;-69
2021/04/19 06:13:15;;;;;;;107.28;39.15;;;5.70;90.20;;;;;;5043487;28;20037;-70
2021/04/19 06:15:42;;;;;;;82.97;37.25;;;5.70;90.30;;;;;;5043841;28;20025;-69
2021/04/19 06:18:09;;;;;;;70.18;36.28;;;5.80;90.30;;;;;;5038555;28;20068;-69
2021/04/19 06:20:35;;;;;;;87.15;34.08;;;5.80;90.50;;;;;;5040272;28;20128;-69
2021/04/19 06:23:03;;;;;;;102.28;35.33;;;5.90;90.40;;;;;;5035489;28;20522;-70
2021/04/19 06:25:29;;;;;;;76.10;33.30;;;5.90;90.50;;;;;;5037678;28;20029;-70
2021/04/19 06:28:03;;;;;;;67.78;32.47;;;6.10;90.70;;;;;;5040077;28;20056;-69
2021/04/19 06:30:32;;;;;;;69.25;33.67;;;6.10;90.70;;;;;;5041415;28;20132;-69
2021/04/19 06:33:00;;;;;;;63.25;35.60;;;6.30;90.70;;;;;;5045728;28;20061;-70
2021/04/19 06:35:25;;;;;;;72.63;33.97;;;6.30;90.60;;;;;;5040889;28;20435;-69
2021/04/19 06:37:54;;;;;;;64.40;33.85;;;6.40;90.60;;;;;;5042063;28;20037;-70
2021/04/19 06:40:20;;;;;;;89.82;35.08;;;6.40;90.50;;;;;;5045312;28;20045;-71
2021/04/19 06:42:46;;;;;;;86.95;36.20;;;6.50;90.50;;;;;;5035414;28;20037;-70
2021/04/19 06:45:14;;;;;;;69.25;32.78;;;6.50;90.50;;;;;;5048815;28;20028;-70
2021/04/19 06:47:41;;;;;;;63.95;31.05;;;6.60;90.50;;;;;;5057512;28;20024;-70
2021/04/19 06:50:08;;;;;;;68.93;32.90;;;6.60;90.50;;;;;;5068596;28;20028;-69
2021/04/19 06:52:34;;;;;;;54.38;30.73;;;6.60;90.40;;;;;;5061029;28;20033;-69
2021/04/19 06:54:59;;;;;;;66.85;33.85;;;6.70;90.60;;;;;;5061130;28;20040;-69
2021/04/19 06:57:30;;;;;;;62.53;34.60;;;6.80;90.60;;;;;;5057825;28;20080;-72
2021/04/19 06:59:56;;;;;;;61.33;31.38;;;6.90;90.50;;;;;;5048391;28;20055;-70
2021/04/19 07:02:26;;;;;;;58.70;29.73;;;6.90;90.30;;;;;;5063291;28;20033;-70
2021/04/19 07:04:55;;;;;;;59.85;32.50;;;7.00;90.30;;;;;;5061422;28;20052;-69
2021/04/19 07:07:31;;;;;;;52.35;29.10;;;7.00;90.20;;;;;;5050474;28;20037;-70
2021/04/19 07:10:00;;;;;;;52.35;28.02;;;7.10;90.20;;;;;;5044314;28;20032;-69
2021/04/19 07:12:27;;;;;;;66.15;29.52;;;7.20;90.30;;;;;;5059408;28;20052;-69
2021/04/19 07:14:55;;;;;;;54.08;28.77;;;7.20;90.10;;;;;;5066701;28;20041;-70
2021/04/19 07:17:21;;;;;;;54.05;32.38;;;7.30;90.10;;;;;;5066460;28;20202;-69
2021/04/19 07:19:47;;;;;;;60.58;32.22;;;7.50;90.30;;;;;;5061414;28;20059;-70
2021/04/19 07:22:17;;;;;;;60.72;32.38;;;7.60;90.00;;;;;;5062534;28;20353;-69
2021/04/19 07:24:43;;;;;;;59.20;32.13;;;7.60;89.90;;;;;;5064234;28;20040;-69
2021/04/19 07:27:11;;;;;;;60.88;31.75;;;7.60;89.70;;;;;;5063605;28;20036;-70
2021/04/19 07:29:41;;;;;;;65.95;35.75;;;7.70;89.50;;;;;;5063712;28;20479;-69
2021/04/19 07:32:07;;;;;;;58.25;32.25;;;7.80;89.60;;;;;;5064152;28;20097;-69
2021/04/19 07:34:33;;;;;;;61.28;32.42;;;7.90;89.60;;;;;;5064768;28;20090;-70
2021/04/19 07:37:04;;;;;;;59.67;33.22;;;8.10;89.60;;;;;;5065893;28;20037;-71
2021/04/19 07:39:34;;;;;;;61.22;35.67;;;8.20;89.20;;;;;;5061374;28;20043;-69
2021/04/19 07:42:02;;;;;;;65.55;36.85;;;8.40;88.90;;;;;;5056354;28;20044;-69
2021/04/19 07:44:39;;;;;;;58.38;34.10;;;8.40;88.50;;;;;;5046750;28;20036;-70
2021/04/19 07:47:27;;;;;;;63.13;35.03;;;8.60;88.10;;;;;;5044064;28;20037;-70
2021/04/19 07:50:11;;;;;;;61.63;35.28;;;8.60;87.60;;;;;;5042595;28;20358;-69
2021/04/19 07:52:53;;;;;;;65.43;35.70;;;8.70;87.20;;;;;;5035510;28;20025;-69
2021/04/19 07:55:30;;;;;;;63.72;35.80;;;8.80;86.90;;;;;;5041460;28;20036;-70
2021/04/19 07:57:56;;;;;;;62.83;34.88;;;8.90;86.50;;;;;;5055738;28;20040;-70
2021/04/19 08:00:23;;;;;;;55.97;36.03;;;9.00;85.90;;;;;;5049296;28;20423;-69
2021/04/19 08:03:06;;;;;;;57.75;33.58;;;9.20;85.90;;;;;;5058531;28;20041;-70
2021/04/19 08:05:34;;;;;;;61.15;35.85;;;9.40;85.40;;;;;;5050366;28;20030;-69
2021/04/19 08:08:00;;;;;;;62.13;36.67;;;9.40;84.30;;;;;;5050815;28;20047;-69
2021/04/19 08:10:26;;;;;;;67.32;36.97;;;9.50;84.50;;;;;;5065759;28;20094;-69
2021/04/19 08:13:04;;;;;;;62.08;35.90;;;9.60;84.10;;;;;;5070562;28;20048;-69
2021/04/19 08:15:31;;;;;;;52.67;33.88;;;9.50;83.50;;;;;;5049508;28;20391;-71
2021/04/19 08:18:18;;;;;;;60.70;34.88;;;9.60;83.90;;;;;;5065679;28;20056;-70
2021/04/19 08:20:49;;;;;;;66.13;36.33;;;9.70;83.80;;;;;;5042167;28;20047;-69
2021/04/19 08:23:16;;;;;;;55.13;35.65;;;9.70;83.50;;;;;;5060855;28;20033;-70
2021/04/19 08:25:48;;;;;;;60.50;36.08;;;9.80;83.80;;;;;;5061727;28;20390;-70
2021/04/19 08:28:19;;;;;;;59.63;35.22;;;10.10;82.90;;;;;;5063541;28;20041;-71
2021/04/19 08:31:26;;;;;;;58.42;35.28;;;10.20;81.60;;;;;;5064101;28;20032;-70
2021/04/19 08:33:52;;;;;;;58.20;35.53;;;10.30;81.30;;;;;;5067673;28;20040;-69
2021/04/19 08:36:18;;;;;;;56.75;35.75;;;10.50;81.30;;;;;;5066512;28;20082;-70
2021/04/19 08:38:47;;;;;;;52.22;32.95;;;10.60;80.50;;;;;;5066982;28;20044;-69
2021/04/19 08:41:14;;;;;;;56.80;34.08;;;11.10;79.00;;;;;;5053729;28;20175;-70
2021/04/19 08:43:41;;;;;;;62.38;33.10;;;11.40;77.60;;;;;;5069120;28;20040;-70
2021/04/19 08:46:07;;;;;;;50.33;32.88;;;10.90;77.20;;;;;;5067515;28;20372;-70
2021/04/19 08:48:33;;;;;;;52.83;33.60;;;10.90;77.50;;;;;;5066301;28;20041;-70
2021/04/19 08:51:04;;;;;;;55.13;35.13;;;11.10;78.30;;;;;;5062965;28;20037;-70
2021/04/19 08:53:30;;;;;;;52.83;34.70;;;11.40;77.60;;;;;;5049399;28;20082;-70
2021/04/19 08:55:56;;;;;;;53.13;35.17;;;11.60;77.20;;;;;;5055071;28;20036;-69
2021/04/19 08:58:23;;;;;;;48.65;31.83;;;11.70;75.60;;;;;;5059057;28;20105;-68
2021/04/19 09:00:51;;;;;;;45.15;30.80;;;11.80;75.30;;;;;;5061590;28;20627;-68
2021/04/19 09:03:19;;;;;;;44.85;31.08;;;11.90;75.60;;;;;;5067340;28;20032;-68
2021/04/19 09:05:45;;;;;;;47.75;33.20;;;12.00;74.50;;;;;;5077695;28;20103;-68
2021/04/19 09:08:15;;;;;;;46.65;32.08;;;12.20;73.70;;;;;;5057036;28;20121;-68
2021/04/19 09:10:53;;;;;;;44.88;30.25;;;12.20;73.50;;;;;;5052792;28;20029;-68
2021/04/19 09:13:31;;;;;;;45.25;30.60;;;12.30;72.50;;;;;;5061579;28;20033;-69
2021/04/19 09:16:19;;;;;;;42.88;29.17;;;12.60;71.10;;;;;;5064686;28;20075;-71
2021/04/19 09:19:06;;;;;;;43.30;29.42;;;12.60;71.30;;;;;;5060227;28;20045;-69
2021/04/19 09:21:42;;;;;;;39.15;28.08;;;12.80;70.00;;;;;;5065672;28;20460;-69
2021/04/19 09:24:13;;;;;;;42.35;27.42;;;13.00;69.40;;;;;;5059307;28;20033;-70
2021/04/19 09:26:44;;;;;;;42.70;29.25;;;13.00;67.80;;;;;;5063082;28;20471;-70
2021/04/19 09:29:11;;;;;;;34.65;25.08;;;13.20;68.70;;;;;;5064167;28;20472;-69
2021/04/19 09:31:55;;;;;;;34.90;23.98;;;13.60;67.20;;;;;;5065772;28;20464;-69
2021/04/19 09:34:43;;;;;;;37.20;25.17;;;13.60;65.40;;;;;;5055971;28;20047;-68
2021/04/19 09:37:19;;;;;;;36.58;26.75;;;13.40;65.20;;;;;;5057357;28;20075;-69
2021/04/19 09:40:02;;;;;;;40.28;26.52;;;13.40;66.60;;;;;;5064773;28;20194;-68
2021/04/19 09:42:56;;;;;;;34.50;23.77;;;13.20;66.30;;;;;;5064377;28;20028;-69
2021/04/19 09:46:22;;;;;;;37.60;25.92;;;13.20;65.10;;;;;;5059291;28;20460;-69
2021/04/19 09:48:54;;;;;;;38.67;26.67;;;13.50;65.70;;;;;;5003941;28;20029;-69
2021/04/19 09:51:27;;;;;;;35.30;25.48;;;13.50;64.10;;;;;;5000743;28;20058;-69
2021/04/19 09:53:56;;;;;;;36.83;24.27;;;13.50;65.60;;;;;;5048177;28;20037;-69
2021/04/19 09:56:38;;;;;;;35.65;23.75;;;13.40;63.30;;;;;;5060675;28;20488;-68
2021/04/19 09:59:05;;;;;;;31.88;22.02;;;13.60;64.00;;;;;;5060195;28;20096;-69
2021/04/19 10:01:32;;;;;;;33.65;21.67;;;13.70;62.80;;;;;;5065037;28;20480;-69
2021/04/19 10:03:59;;;;;;;28.25;19.23;;;13.90;63.00;;;;;;5065001;28;20122;-69
2021/04/19 10:06:35;;;;;;;24.45;17.98;;;13.80;61.40;;;;;;5064815;28;20387;-69
2021/04/19 10:09:02;;;;;;;26.55;18.02;;;14.10;62.40;;;;;;5064200;28;20135;-70
2021/04/19 10:11:31;;;;;;;27.98;19.30;;;14.00;61.30;;;;;;5062764;28;20044;-67
2021/04/19 10:14:06;;;;;;;30.33;19.00;;;14.00;63.60;;;;;;5063283;28;20044;-71
2021/04/19 10:16:39;;;;;;;29.75;17.05;;;14.20;62.30;;;;;;5061680;28;20036;-74
2021/04/19 10:19:05;;;;;;;25.83;16.60;;;14.30;61.10;;;;;;5062084;28;20048;-68
2021/04/19 10:21:31;;;;;;;27.10;17.38;;;14.50;60.30;;;;;;5059256;28;20045;-70
2021/04/19 10:23:58;;;;;;;29.58;18.77;;;14.30;61.30;;;;;;5055018;28;20037;-71
2021/04/19 10:26:32;;;;;;;25.90;16.25;;;14.20;61.40;;;;;;5056448;28;20082;-67
2021/04/19 10:28:58;;;;;;;24.25;17.02;;;14.30;60.90;;;;;;5063881;28;20053;-70
2021/04/19 10:31:23;;;;;;;28.27;18.80;;;14.60;59.70;;;;;;5062177;28;20043;-72
2021/04/19 10:33:51;;;;;;;28.10;17.88;;;14.70;61.50;;;;;;5063331;28;20110;-71
2021/04/19 10:36:22;;;;;;;24.17;18.92;;;15.10;60.00;;;;;;5062243;28;20040;-71
2021/04/19 10:38:51;;;;;;;27.65;18.17;;;14.60;59.70;;;;;;5065092;28;20044;-69
2021/04/19 10:41:28;;;;;;;26.80;18.85;;;14.60;61.10;;;;;;5058943;28;20072;-70
2021/04/19 10:43:53;;;;;;;25.17;18.15;;;14.60;60.60;;;;;;5062942;28;20056;-70
2021/04/19 10:46:22;;;;;;;25.13;17.38;;;14.60;59.50;;;;;;5059853;28;20037;-70
2021/04/19 10:48:47;;;;;;;25.02;17.50;;;14.90;59.40;;;;;;5055901;28;20131;-70
2021/04/19 10:51:22;;;;;;;28.90;18.70;;;15.20;58.80;;;;;;5054175;28;20063;-70
2021/04/19 10:53:48;;;;;;;;;;;15.00;58.20;;;;;;5054290;28;20060;-70
2021/04/19 10:56:20;;;;;;;21.23;14.35;;;15.00;58.90;;;;;;5056143;28;20123;-70
2021/04/19 10:58:47;;;;;;;23.38;14.68;;;15.00;55.70;;;;;;5059697;28;20037;-70
2021/04/19 11:01:13;;;;;;;18.23;12.45;;;15.10;56.70;;;;;;5056456;28;20032;-69
2021/04/19 11:03:39;;;;;;;21.05;12.88;;;15.10;52.80;;;;;;5055775;28;20536;-70
2021/04/19 11:06:09;;;;;;;21.73;12.80;;;15.40;53.80;;;;;;5063770;28;20124;-70
2021/04/19 11:08:57;;;;;;;16.10;11.07;;;15.50;53.70;;;;;;5062818;28;20128;-70
2021/04/19 11:11:28;;;;;;;16.25;11.90;;;15.30;52.10;;;;;;5059792;28;20037;-72
2021/04/19 11:14:10;;;;;;;21.45;12.32;;;15.40;51.90;;;;;;5061403;28;20028;-70
2021/04/19 11:16:36;;;;;;;19.52;11.82;;;15.10;53.10;;;;;;5057225;28;20407;-69
2021/04/19 11:19:02;;;;;;;18.95;12.90;;;15.10;53.30;;;;;;5053276;28;20037;-70
2021/04/19 11:21:33;;;;;;;18.13;12.35;;;15.40;54.10;;;;;;5053726;28;20184;-70
2021/04/19 11:24:15;;;;;;;18.05;12.23;;;15.80;53.20;;;;;;5058135;28;20068;-70
2021/04/19 11:26:41;;;;;;;14.20;8.98;;;16.10;52.60;;;;;;5053803;28;20172;-70
2021/04/19 11:29:08;;;;;;;17.23;9.38;;;16.10;47.70;;;;;;5054690;28;20045;-71
2021/04/19 11:31:50;;;;;;;17.70;10.43;;;15.80;48.30;;;;;;5059753;28;20029;-70
2021/04/19 11:34:17;;;;;;;17.60;11.35;;;15.70;49.80;;;;;;5067256;28;20028;-69
2021/04/19 11:36:46;;;;;;;18.05;12.07;;;16.10;52.30;;;;;;5067903;28;20035;-70
2021/04/19 11:39:20;;;;;;;18.67;12.38;;;16.20;52.30;;;;;;5064526;28;20045;-70
2021/04/19 11:41:48;;;;;;;16.25;10.25;;;16.50;51.40;;;;;;5062390;28;20032;-70
2021/04/19 11:44:14;;;;;;;17.77;10.40;;;16.20;48.00;;;;;;5064042;28;20033;-70
2021/04/19 11:46:48;;;;;;;18.13;9.52;;;16.40;49.20;;;;;;5062715;28;20036;-70
2021/04/19 11:49:18;;;;;;;13.23;8.68;;;16.30;48.60;;;;;;5065393;28;20036;-70
2021/04/19 11:51:44;;;;;;;12.93;7.88;;;16.50;46.40;;;;;;5062901;28;20166;-71
2021/04/19 11:54:11;;;;;;;13.63;8.73;;;16.60;46.80;;;;;;5065800;28;20077;-70
2021/04/19 11:56:37;;;;;;;14.52;7.43;;;16.80;45.40;;;;;;5063498;28;20041;-73
2021/04/19 11:59:03;;;;;;;10.70;7.47;;;16.70;45.30;;;;;;5065768;28;20048;-70
2021/04/19 12:01:29;;;;;;;13.65;8.00;;;16.80;43.50;;;;;;5063298;28;20037;-69
2021/04/19 12:03:56;;;;;;;13.15;6.82;;;16.70;43.20;;;;;;5063626;28;20110;-69
2021/04/19 12:06:23;;;;;;;12.88;7.07;;;16.60;43.90;;;;;;5064358;28;20034;-70
2021/04/19 12:08:50;;;;;;;9.68;6.90;;;16.60;42.90;;;;;;5061376;28;20359;-70
2021/04/19 12:11:18;;;;;;;12.75;7.57;;;16.50;44.10;;;;;;5065287;28;20028;-70
2021/04/19 12:13:45;;;;;;;10.90;6.72;;;16.50;45.60;;;;;;5063639;28;20058;-73
2021/04/19 12:16:12;;;;;;;13.20;8.00;;;16.60;44.30;;;;;;5064639;28;20047;-70
2021/04/19 12:18:38;;;;;;;15.13;7.68;;;16.70;44.10;;;;;;5059636;28;20074;-70
2021/04/19 12:21:05;;;;;;;12.02;7.82;;;16.60;44.60;;;;;;5061864;28;20982;-71
2021/04/19 12:23:31;;;;;;;13.02;8.32;;;16.70;44.30;;;;;;5060767;28;20063;-73
2021/04/19 12:25:58;;;;;;;13.23;7.68;;;16.70;45.00;;;;;;5059286;28;20048;-72
2021/04/19 12:28:24;;;;;;;16.65;9.13;;;16.80;45.60;;;;;;5056646;28;20041;-70
2021/04/19 12:30:52;;;;;;;15.32;10.00;;;16.60;46.40;;;;;;5059661;28;20032;-70
2021/04/19 12:33:18;;;;;;;15.73;8.82;;;16.60;46.40;;;;;;5064626;28;20037;-70
2021/04/19 12:35:45;;;;;;;12.95;9.20;;;16.30;46.70;;;;;;5062824;28;20393;-70
2021/04/19 12:38:11;;;;;;;12.63;8.45;;;16.10;47.80;;;;;;5065821;28;20074;-71
2021/04/19 12:40:38;;;;;;;17.23;8.60;;;16.50;46.60;;;;;;5067950;28;20024;-71
2021/04/19 12:43:03;;;;;;;12.85;7.88;;;16.50;45.30;;;;;;5060020;28;20082;-72
2021/04/19 12:45:33;;;;;;;11.32;7.80;;;16.50;45.00;;;;;;5056238;28;20072;-73
2021/04/19 12:48:04;;;;;;;14.73;8.15;;;16.50;45.90;;;;;;5063031;28;20036;-72
2021/04/19 12:50:30;;;;;;;13.00;9.20;;;16.70;44.50;;;;;;5061190;28;20067;-72